createdAt,value
2023-04-04T00:02:21.465Z,88.60
2023-04-04T00:10:27.433Z,88.40
2023-04-04T00:18:35.591Z,87.80
2023-04-04T00:26:41.212Z,88.20
2023-04-04T00:34:49.341Z,88.00
2023-04-04T00:42:55.467Z,87.90
2023-04-04T00:51:03.864Z,88.60
2023-04-04T00:59:10.636Z,88.40
2023-04-04T01:07:18.870Z,89.00
2023-04-04T01:15:24.366Z,89.30
2023-04-04T01:23:39.684Z,88.40
2023-04-04T01:31:52.674Z,89.10
2023-04-04T01:40:04.760Z,89.00
2023-04-04T01:48:16.853Z,89.80
2023-04-04T01:56:26.272Z,88.50
2023-04-04T02:04:35.191Z,87.50
2023-04-04T02:12:41.159Z,90.10
2023-04-04T02:20:49.262Z,91.70
2023-04-04T02:28:54.832Z,92.80
2023-04-04T02:37:04.219Z,93.50
2023-04-04T02:45:11.795Z,93.40
2023-04-04T02:53:22.554Z,93.60
2023-04-04T03:01:31.202Z,93.40
2023-04-04T03:09:45.362Z,93.30
2023-04-04T03:17:52.117Z,93.90
2023-04-04T03:26:02.408Z,92.80
2023-04-04T03:34:08.602Z,92.30
2023-04-04T03:42:17.052Z,92.00
2023-04-04T03:50:22.542Z,91.10
2023-04-04T03:58:34.660Z,91.20
2023-04-04T04:06:40.353Z,90.60
2023-04-04T04:14:48.566Z,90.00
2023-04-04T04:22:54.377Z,89.90
2023-04-04T04:31:07.806Z,88.60
2023-04-04T04:39:19.705Z,88.70
2023-04-04T04:47:54.188Z,88.40
2023-04-04T04:56:00.192Z,87.20
2023-04-04T05:04:08.546Z,87.00
2023-04-04T05:12:33.964Z,87.00
2023-04-04T05:20:42.428Z,87.00
2023-04-04T05:28:51.849Z,87.30
2023-04-04T05:37:02.007Z,86.90
2023-04-04T05:45:11.550Z,87.00
2023-04-04T05:53:19.763Z,86.70
2023-04-04T06:01:29.644Z,86.20
2023-04-04T06:09:40.965Z,85.80
2023-04-04T06:17:47.772Z,85.60
2023-04-04T06:25:57.372Z,86.10
2023-04-04T06:34:04.407Z,86.20
2023-04-04T06:42:17.115Z,85.90
2023-04-04T06:50:27.489Z,85.80
2023-04-04T06:58:35.917Z,85.40
2023-04-04T07:06:41.502Z,84.90
2023-04-04T07:14:49.546Z,84.50
2023-04-04T07:22:54.919Z,84.30
2023-04-04T07:31:05.365Z,84.60
2023-04-04T07:39:10.784Z,84.10
2023-04-04T07:47:19.271Z,84.00
2023-04-04T07:55:25.580Z,83.70
2023-04-04T08:03:33.802Z,83.90
2023-04-04T08:11:39.589Z,83.40
2023-04-04T08:19:48.703Z,84.20
2023-04-04T08:27:54.321Z,84.40
2023-04-04T08:36:02.519Z,82.90
2023-04-04T08:44:08.734Z,82.30
2023-04-04T08:52:20.402Z,82.30
2023-04-04T09:00:26.032Z,81.30
2023-04-04T09:08:34.430Z,81.00
2023-04-04T09:16:40.876Z,81.00
2023-04-04T09:24:50.850Z,80.20
2023-04-04T09:33:06.998Z,80.60
2023-04-04T09:41:18.316Z,79.40
2023-04-04T09:49:24.469Z,79.20
2023-04-04T09:57:35.203Z,78.70
2023-04-04T10:05:40.824Z,77.40
2023-04-04T10:13:48.882Z,79.70
2023-04-04T10:21:54.735Z,79.10
2023-04-04T10:30:03.416Z,79.70
2023-04-04T10:38:09.161Z,79.10
2023-04-04T10:46:22.306Z,79.90
2023-04-04T10:54:29.553Z,79.10
2023-04-04T11:02:51.659Z,78.70
2023-04-04T11:10:58.286Z,78.20
2023-04-04T11:19:06.563Z,78.10
2023-04-04T11:27:12.027Z,76.80
2023-04-04T11:35:21.148Z,76.30
2023-04-04T11:43:26.845Z,76.30
2023-04-04T11:51:35.753Z,76.10
2023-04-04T11:59:43.924Z,76.30
2023-04-04T12:07:53.212Z,76.30
2023-04-04T12:15:59.632Z,76.30
2023-04-04T12:24:07.942Z,76.70
2023-04-04T12:32:14.580Z,76.80
2023-04-04T12:40:25.858Z,76.50
2023-04-04T12:48:34.492Z,76.90
2023-04-04T12:56:43.760Z,76.40
2023-04-04T13:04:49.939Z,76.60
2023-04-04T13:13:02.756Z,76.20
2023-04-04T13:21:10.198Z,76.40
2023-04-04T13:29:18.273Z,76.70
2023-04-04T13:37:25.385Z,77.40
2023-04-04T13:45:36.307Z,77.60
2023-04-04T13:53:41.766Z,78.10
2023-04-04T14:01:49.901Z,78.00
2023-04-04T14:09:55.312Z,78.80
2023-04-04T14:18:03.446Z,79.20
2023-04-04T14:26:09.234Z,79.90
2023-04-04T14:34:17.287Z,80.10
2023-04-04T14:42:22.739Z,80.90
2023-04-04T14:50:30.868Z,81.00
2023-04-04T14:58:36.295Z,81.10
2023-04-04T15:06:44.481Z,82.20
2023-04-04T15:14:49.851Z,81.30
2023-04-04T15:22:57.941Z,81.50
2023-04-04T15:31:04.513Z,81.70
2023-04-04T15:39:14.085Z,82.00
2023-04-04T15:47:19.742Z,82.10
2023-04-04T15:55:27.836Z,82.50
2023-04-04T16:03:33.398Z,82.20
2023-04-04T16:11:41.520Z,82.60
2023-04-04T16:19:46.998Z,83.30
2023-04-04T16:28:01.900Z,83.20
2023-04-04T16:36:07.799Z,83.20
2023-04-04T16:44:16.104Z,83.50
2023-04-04T16:52:21.593Z,83.60
2023-04-04T17:00:29.926Z,83.80
2023-04-04T17:08:35.348Z,84.40
2023-04-04T17:16:43.860Z,84.40
2023-04-04T17:24:49.475Z,84.70
2023-04-04T17:32:57.819Z,84.70
2023-04-04T17:41:04.521Z,84.80
2023-04-04T17:49:12.647Z,85.20
2023-04-04T17:57:18.498Z,85.00
2023-04-04T18:05:29.279Z,84.70
2023-04-04T18:13:36.482Z,84.80
2023-04-04T18:21:45.889Z,85.20
2023-04-04T18:29:51.241Z,85.10
2023-04-04T18:38:01.882Z,85.40
2023-04-04T18:46:08.021Z,85.90
2023-04-04T18:54:18.454Z,85.80
2023-04-04T19:02:23.937Z,85.90
2023-04-04T19:10:32.235Z,85.60
2023-04-04T19:18:37.953Z,85.80
2023-04-04T19:26:46.044Z,85.80
2023-04-04T19:34:52.541Z,86.00
2023-04-04T19:43:03.446Z,85.70
2023-04-04T19:51:11.207Z,86.10
2023-04-04T19:59:57.597Z,85.80
2023-04-04T20:08:05.021Z,85.60
2023-04-04T20:16:15.966Z,85.60
2023-04-04T20:24:22.062Z,85.80
2023-04-04T20:32:30.222Z,85.90
2023-04-04T20:40:42.086Z,85.90
2023-04-04T20:48:50.928Z,86.00
2023-04-04T20:56:59.681Z,85.80
2023-04-04T21:05:29.433Z,85.80
2023-04-04T21:13:39.185Z,86.10
2023-04-04T21:21:47.358Z,86.20
2023-04-04T21:29:52.854Z,85.80
2023-04-04T21:38:01.146Z,85.80
2023-04-04T21:46:06.809Z,86.50
2023-04-04T21:54:14.993Z,86.30
2023-04-04T22:02:20.549Z,86.50
2023-04-04T22:10:29.998Z,86.60
2023-04-04T22:18:36.727Z,86.60
2023-04-04T22:26:46.093Z,86.80
2023-04-04T22:34:51.914Z,86.60
2023-04-04T22:43:00.352Z,87.50
2023-04-04T22:51:05.817Z,87.60
2023-04-04T22:59:14.012Z,88.20
2023-04-04T23:07:19.598Z,87.20
2023-04-04T23:15:29.288Z,87.40
2023-04-04T23:23:34.780Z,87.10
2023-04-04T23:31:43.069Z,87.20
2023-04-04T23:39:49.040Z,87.50
2023-04-04T23:47:57.804Z,87.40
2023-04-04T23:56:03.726Z,87.40
